Time,TemperatureF,DewpointF,PressureIn,WindDirection,WindDirectionDegrees,WindSpeedMPH,WindSpeedGustMPH,Humidity,HourlyPrecipIn,Conditions,Clouds,dailyrainin,SoftwareType,DateUTC
2013-01-16 00:42:00,26.0,15.0,-100.00,West,259,14.0,18.0,62,0.00,,,0.04,,2013-01-16 07:42:00,
2013-01-16 00:52:00,26.0,15.0,-100.00,West,259,14.0,18.0,62,0.00,,,0.04,,2013-01-16 07:52:00,
2013-01-16 01:42:00,25.0,14.0,-100.00,West,274,14.0,19.0,63,0.00,,,0.04,,2013-01-16 08:42:00,
2013-01-16 01:52:00,25.0,14.0,-100.00,West,274,14.0,19.0,63,0.00,,,0.04,,2013-01-16 08:52:00,
2013-01-16 02:00:00,25.0,14.0,-100.00,West,262,14.0,19.0,62,0.00,,,0.04,,2013-01-16 09:00:00,
2013-01-16 02:32:00,25.0,14.0,-100.00,West,262,14.0,19.0,62,0.00,,,0.04,,2013-01-16 09:32:00,
2013-01-16 02:42:00,25.0,14.0,-100.00,West,262,14.0,19.0,62,0.00,,,0.04,,2013-01-16 09:42:00,
2013-01-16 02:53:00,25.0,14.0,-100.00,West,262,14.0,19.0,62,0.00,,,0.04,,2013-01-16 09:53:00,
2013-01-16 03:00:00,22.0,14.0,-100.00,ENE,69,0.0,3.0,70,0.00,,,0.04,,2013-01-16 10:00:00,
2013-01-16 03:42:00,22.0,14.0,-100.00,ENE,69,0.0,3.0,70,0.00,,,0.04,,2013-01-16 10:42:00,
2013-01-16 03:53:00,22.0,14.0,-100.00,ENE,69,0.0,3.0,70,0.00,,,0.04,,2013-01-16 10:53:00,
2013-01-16 04:42:00,27.0,15.0,-100.00,WSW,238,12.0,14.0,60,0.00,,,0.04,,2013-01-16 11:42:00,
2013-01-16 04:53:00,27.0,15.0,-100.00,WSW,238,12.0,14.0,60,0.00,,,0.04,,2013-01-16 11:53:00,
2013-01-16 05:33:00,27.0,15.0,-100.00,West,280,8.0,11.0,61,0.00,,,0.04,,2013-01-16 12:33:00,
2013-01-16 06:33:00,26.0,15.0,-100.00,SW,226,4.0,6.0,64,0.00,,,0.04,,2013-01-16 13:33:00,
2013-01-16 07:32:00,24.0,14.0,-100.00,SW,236,10.0,12.0,64,0.00,,,0.03,,2013-01-16 14:32:00,
2013-01-16 08:43:00,23.0,13.0,-100.00,SW,236,10.0,14.0,66,0.00,,,0.03,,2013-01-16 15:43:00,
2013-01-16 08:53:00,23.0,13.0,-100.00,SW,236,10.0,14.0,66,0.00,,,0.03,,2013-01-16 15:53:00,
2013-01-16 09:42:00,23.0,14.0,-100.00,West,260,6.0,7.0,67,0.00,,,0.03,,2013-01-16 16:42:00,
2013-01-16 09:53:00,23.0,14.0,-100.00,West,260,6.0,7.0,67,0.00,,,0.03,,2013-01-16 16:53:00,
2013-01-16 10:33:00,29.0,18.0,-100.00,WSW,243,6.0,7.0,62,0.00,,,0.03,,2013-01-16 17:33:00,
2013-01-16 11:33:00,35.0,22.0,-100.00,SSE,154,1.0,3.0,58,0.00,,,0.03,,2013-01-16 18:33:00,
2013-01-16 12:42:00,31.0,21.0,-100.00,NNE,15,0.0,2.0,64,0.01,,,0.04,,2013-01-16 19:42:00,
2013-01-16 12:53:00,31.0,21.0,-100.00,NNE,15,0.0,2.0,64,0.01,,,0.04,,2013-01-16 19:53:00,
2013-01-16 13:42:00,32.0,19.0,-100.00,East,91,3.0,4.0,56,0.00,,,0.02,,2013-01-16 20:42:00,
2013-01-16 13:53:00,32.0,19.0,-100.00,East,91,3.0,4.0,56,0.00,,,0.02,,2013-01-16 20:53:00,
2013-01-16 14:43:00,35.0,20.0,-100.00,NE,56,4.0,5.0,54,0.00,,,0.01,,2013-01-16 21:43:00,
2013-01-16 14:53:00,35.0,20.0,-100.00,NE,56,4.0,5.0,54,0.00,,,0.01,,2013-01-16 21:53:00,
2013-01-16 15:43:00,34.0,19.0,-100.00,SW,224,3.0,4.0,52,0.00,,,0.01,,2013-01-16 22:43:00,
2013-01-16 15:53:00,34.0,19.0,-100.00,SW,224,3.0,4.0,52,0.00,,,0.01,,2013-01-16 22:53:00,
2013-01-16 16:42:00,29.0,18.0,-100.00,WSW,238,2.0,4.0,63,0.00,,,0.01,,2013-01-16 23:42:00,
2013-01-16 16:53:00,29.0,18.0,-100.00,WSW,238,2.0,4.0,63,0.00,,,0.01,,2013-01-16 23:53:00,
2013-01-16 17:00:00,27.0,18.0,-100.00,WSW,237,7.0,7.0,68,0.00,,,0.01,,2013-01-17 00:00:00,
2013-01-16 17:32:00,27.0,18.0,-100.00,WSW,237,7.0,7.0,68,0.00,,,0.01,,2013-01-17 00:32:00,
2013-01-16 17:42:00,27.0,18.0,-100.00,WSW,237,7.0,7.0,68,0.00,,,0.01,,2013-01-17 00:42:00,
2013-01-16 17:52:00,27.0,18.0,-100.00,WSW,237,7.0,7.0,68,0.00,,,0.01,,2013-01-17 00:52:00,
2013-01-16 18:32:00,31.0,17.0,-100.00,WSW,252,6.0,9.0,54,0.00,,,0.01,,2013-01-17 01:32:00,
2013-01-16 19:00:00,27.0,15.0,-100.00,SW,236,7.0,10.0,61,0.00,,,0.01,,2013-01-17 02:00:00,
2013-01-16 20:00:00,25.0,15.0,-100.00,WSW,255,9.0,11.0,64,0.00,,,0.00,,2013-01-17 03:00:00,
2013-01-16 20:42:00,25.0,15.0,-100.00,WSW,255,9.0,11.0,64,0.00,,,0.00,,2013-01-17 03:42:00,
2013-01-16 20:52:00,25.0,15.0,-100.00,WSW,255,9.0,11.0,64,0.00,,,0.00,,2013-01-17 03:52:00,
2013-01-16 21:42:00,25.0,13.0,-100.00,SW,234,9.0,11.0,60,0.00,,,0.00,,2013-01-17 04:42:00,
2013-01-16 21:52:00,25.0,13.0,-100.00,SW,234,9.0,11.0,60,0.00,,,0.00,,2013-01-17 04:52:00,
2013-01-16 22:42:00,27.0,11.0,-100.00,WSW,242,10.0,14.0,52,0.00,,,0.00,,2013-01-17 05:42:00,
2013-01-16 22:53:00,27.0,11.0,-100.00,WSW,242,10.0,14.0,52,0.00,,,0.00,,2013-01-17 05:53:00,
2013-01-16 23:32:00,26.0,10.0,-100.00,WSW,246,6.0,10.0,49,0.00,,,0.00,,2013-01-17 06:32:00,